createdAt,value
2022-07-29T00:01:46.939Z,0.68
2022-07-29T00:06:38.986Z,0.70
2022-07-29T00:11:30.635Z,0.40
2022-07-29T00:16:22.360Z,0.65
2022-07-29T00:21:14.221Z,0.55
2022-07-29T00:26:05.920Z,0.93
2022-07-29T00:30:57.601Z,0.60
2022-07-29T00:35:49.246Z,0.50
2022-07-29T00:40:43.302Z,0.50
2022-07-29T00:45:36.374Z,0.60
2022-07-29T00:50:28.218Z,0.50
2022-07-29T00:55:20.268Z,0.90
2022-07-29T01:00:18.462Z,0.45
2022-07-29T01:05:12.862Z,0.40
2022-07-29T01:10:07.516Z,0.40
2022-07-29T01:15:00.022Z,0.40
2022-07-29T01:20:10.663Z,0.38
2022-07-29T01:25:20.996Z,0.40
2022-07-29T01:30:15.575Z,0.40
2022-07-29T01:35:16.688Z,0.40
2022-07-29T01:40:19.951Z,0.52
2022-07-29T01:45:58.805Z,0.40
2022-07-29T01:50:59.695Z,0.30
2022-07-29T01:55:53.985Z,0.40
2022-07-29T02:00:52.438Z,0.40
2022-07-29T02:05:47.480Z,0.75
2022-07-29T02:10:41.113Z,0.40
2022-07-29T02:15:35.382Z,0.30
2022-07-29T02:20:28.756Z,0.30
2022-07-29T02:25:23.450Z,0.30
2022-07-29T02:30:15.686Z,0.30
2022-07-29T02:35:09.806Z,0.30
2022-07-29T02:40:03.209Z,0.35
2022-07-29T02:44:55.169Z,0.32
2022-07-29T02:49:58.905Z,0.40
2022-07-29T02:55:03.608Z,0.35
2022-07-29T02:59:59.709Z,0.30
2022-07-29T03:04:53.610Z,0.30
2022-07-29T03:09:46.302Z,0.22
2022-07-29T03:14:38.645Z,0.30
2022-07-29T03:19:30.407Z,0.30
2022-07-29T03:24:36.557Z,0.28
2022-07-29T03:29:33.193Z,0.20
2022-07-29T03:34:25.740Z,0.22
2022-07-29T03:39:24.219Z,0.40
2022-07-29T03:44:17.865Z,0.20
2022-07-29T03:49:12.372Z,0.30
2022-07-29T03:54:09.966Z,0.30
2022-07-29T04:03:54.651Z,0.20
2022-07-29T04:08:46.450Z,0.30
2022-07-29T04:13:38.065Z,0.20
2022-07-29T04:18:29.701Z,0.25
2022-07-29T04:23:21.342Z,0.30
2022-07-29T04:28:13.077Z,0.32
2022-07-29T04:33:07.095Z,0.30
2022-07-29T04:37:58.714Z,0.30
2022-07-29T04:42:50.373Z,0.30
2022-07-29T04:47:42.038Z,0.38
2022-07-29T04:52:33.990Z,0.30
2022-07-29T04:57:25.565Z,0.30
2022-07-29T05:02:17.292Z,0.35
2022-07-29T05:07:08.908Z,0.30
2022-07-29T05:12:00.563Z,0.32
2022-07-29T05:16:52.217Z,0.38
2022-07-29T05:21:45.494Z,0.40
2022-07-29T05:26:37.166Z,0.40
2022-07-29T05:31:28.806Z,0.47
2022-07-29T05:36:20.526Z,0.40
2022-07-29T05:41:12.637Z,0.40
2022-07-29T05:46:04.342Z,0.75
2022-07-29T05:50:56.164Z,0.82
2022-07-29T05:55:49.152Z,0.50
2022-07-29T06:00:41.071Z,0.60
2022-07-29T06:05:32.682Z,0.40
2022-07-29T06:10:26.108Z,0.40
2022-07-29T06:15:18.923Z,0.50
2022-07-29T06:20:12.399Z,0.52
2022-07-29T06:25:04.700Z,0.50
2022-07-29T06:29:57.489Z,0.40
2022-07-29T06:34:49.373Z,0.40
2022-07-29T06:39:41.667Z,0.73
2022-07-29T06:44:35.025Z,0.85
2022-07-29T06:49:27.383Z,0.60
2022-07-29T06:54:19.413Z,0.50
2022-07-29T06:59:12.900Z,0.50
2022-07-29T07:04:04.682Z,0.43
2022-07-29T07:08:56.365Z,0.50
2022-07-29T07:13:48.091Z,0.70
2022-07-29T07:18:39.741Z,0.50
2022-07-29T07:23:31.708Z,0.60
2022-07-29T07:28:24.508Z,0.70
2022-07-29T07:33:16.859Z,0.45
2022-07-29T07:38:08.634Z,0.80
2022-07-29T07:43:00.388Z,0.60
2022-07-29T07:47:52.041Z,0.82
2022-07-29T07:52:50.476Z,0.60
2022-07-29T07:57:42.239Z,0.57
2022-07-29T08:02:33.872Z,0.60
2022-07-29T08:07:25.512Z,0.52
2022-07-29T08:12:17.261Z,0.70
2022-07-29T08:17:08.964Z,0.40
2022-07-29T08:22:00.773Z,0.70
2022-07-29T08:26:52.418Z,0.60
2022-07-29T08:31:44.466Z,0.60
2022-07-29T08:36:36.612Z,0.60
2022-07-29T08:41:28.362Z,0.60
2022-07-29T08:46:22.529Z,0.60
2022-07-29T08:51:16.347Z,0.60
2022-07-29T08:56:08.174Z,0.80
2022-07-29T09:01:02.597Z,0.70
2022-07-29T09:05:55.459Z,0.60
2022-07-29T09:10:47.899Z,1.25
2022-07-29T09:15:39.630Z,0.60
2022-07-29T09:20:51.232Z,0.90
2022-07-29T09:25:42.945Z,0.73
2022-07-29T09:30:34.845Z,0.63
2022-07-29T09:35:27.219Z,1.10
2022-07-29T09:40:25.250Z,0.80
2022-07-29T09:45:34.901Z,0.80
2022-07-29T09:50:41.205Z,0.70
2022-07-29T09:55:33.502Z,1.10
2022-07-29T10:00:26.510Z,0.80
2022-07-29T10:05:26.158Z,1.02
2022-07-29T10:10:23.467Z,0.80
2022-07-29T10:15:16.598Z,0.77
2022-07-29T10:20:12.537Z,0.80
2022-07-29T10:25:09.697Z,0.85
2022-07-29T10:30:02.842Z,1.38
2022-07-29T10:35:19.753Z,1.08
2022-07-29T10:41:08.679Z,1.15
2022-07-29T10:46:01.868Z,1.00
2022-07-29T10:50:57.329Z,0.82
2022-07-29T10:55:51.419Z,1.48
2022-07-29T11:00:48.075Z,1.48
2022-07-29T11:05:55.857Z,1.20
2022-07-29T11:10:49.218Z,1.30
2022-07-29T11:15:55.229Z,1.40
2022-07-29T11:20:54.882Z,1.40
2022-07-29T11:26:07.751Z,1.10
2022-07-29T11:31:00.665Z,1.45
2022-07-29T11:36:16.827Z,1.30
2022-07-29T11:41:18.956Z,1.33
2022-07-29T11:46:12.900Z,1.30
2022-07-29T11:51:12.071Z,1.85
2022-07-29T11:56:05.147Z,1.13
2022-07-29T12:00:58.634Z,1.17
2022-07-29T12:05:57.409Z,1.30
2022-07-29T12:10:53.050Z,1.00
2022-07-29T12:16:00.036Z,1.02
2022-07-29T12:21:05.597Z,1.38
2022-07-29T12:25:59.534Z,1.10
2022-07-29T12:30:51.845Z,1.02
2022-07-29T12:35:58.082Z,0.93
2022-07-29T12:40:56.229Z,1.23
2022-07-29T12:45:51.022Z,1.13
2022-07-29T12:51:00.207Z,1.25
2022-07-29T12:55:53.425Z,0.93
2022-07-29T13:00:45.150Z,0.98
2022-07-29T13:05:48.835Z,1.30
2022-07-29T13:10:42.082Z,1.30
2022-07-29T13:15:35.224Z,1.02
2022-07-29T13:20:30.663Z,1.05
2022-07-29T13:25:28.124Z,0.70
2022-07-29T13:30:19.749Z,1.05
2022-07-29T13:35:11.383Z,0.88
2022-07-29T13:40:04.444Z,1.02
2022-07-29T13:44:56.336Z,0.95
2022-07-29T13:49:48.378Z,0.70
2022-07-29T13:54:42.625Z,0.95
2022-07-29T13:59:34.740Z,0.77
2022-07-29T14:04:26.796Z,0.80
2022-07-29T14:09:18.887Z,0.80
2022-07-29T14:14:11.622Z,0.90
2022-07-29T14:19:03.512Z,0.70
2022-07-29T14:23:55.682Z,0.70
2022-07-29T14:28:48.081Z,0.80
2022-07-29T14:33:39.750Z,0.70
2022-07-29T14:38:31.375Z,1.08
2022-07-29T14:43:23.034Z,1.00
2022-07-29T14:48:14.651Z,1.10
2022-07-29T14:53:06.449Z,1.55
2022-07-29T14:58:07.761Z,1.10
2022-07-29T15:03:02.751Z,1.23
2022-07-29T15:07:54.750Z,1.08
2022-07-29T15:12:46.390Z,0.88
2022-07-29T15:17:38.134Z,1.17
2022-07-29T15:22:29.756Z,0.93
2022-07-29T15:27:21.434Z,0.90
2022-07-29T15:32:13.278Z,0.80
2022-07-29T15:37:06.275Z,1.60
2022-07-29T15:42:00.569Z,1.35
2022-07-29T15:47:04.673Z,1.33
2022-07-29T15:51:59.872Z,1.05
2022-07-29T15:56:51.776Z,0.88
2022-07-29T16:01:43.406Z,1.42
2022-07-29T16:06:35.038Z,1.08
2022-07-29T16:11:26.785Z,1.23
2022-07-29T16:16:19.126Z,1.30
2022-07-29T16:21:11.586Z,1.08
2022-07-29T16:26:03.373Z,0.82
2022-07-29T16:30:55.139Z,1.08
2022-07-29T16:35:46.873Z,1.27
2022-07-29T16:40:38.937Z,0.80
2022-07-29T16:45:32.684Z,1.52
2022-07-29T16:50:39.703Z,1.30
2022-07-29T16:55:31.314Z,1.33
2022-07-29T17:00:23.680Z,1.10
2022-07-29T17:05:15.942Z,1.10
2022-07-29T17:10:09.241Z,1.42
2022-07-29T17:15:00.918Z,1.50
2022-07-29T17:19:52.586Z,1.55
2022-07-29T17:24:45.521Z,1.52
2022-07-29T17:29:38.923Z,2.05
2022-07-29T17:34:31.023Z,1.40
2022-07-29T17:39:22.822Z,1.58
2022-07-29T17:44:14.633Z,1.58
2022-07-29T17:49:07.342Z,1.48
2022-07-29T17:53:59.496Z,1.00
2022-07-29T17:58:52.181Z,1.00
2022-07-29T18:03:44.385Z,0.98
2022-07-29T18:08:36.968Z,0.90
2022-07-29T18:13:28.639Z,1.45
2022-07-29T18:18:20.411Z,1.42
2022-07-29T18:23:12.155Z,1.20
2022-07-29T18:28:04.293Z,1.23
2022-07-29T18:33:19.876Z,1.33
2022-07-29T18:38:07.808Z,1.13
2022-07-29T18:42:59.482Z,1.45
2022-07-29T18:47:51.831Z,1.13
2022-07-29T18:52:46.400Z,1.15
2022-07-29T18:57:55.077Z,1.23
2022-07-29T19:02:49.021Z,1.45
2022-07-29T19:07:40.863Z,1.20
2022-07-29T19:12:32.554Z,0.93
2022-07-29T19:17:24.168Z,1.40
2022-07-29T19:22:15.863Z,1.23
2022-07-29T19:27:07.822Z,1.33
2022-07-29T19:32:00.633Z,1.02
2022-07-29T19:36:53.109Z,1.00
2022-07-29T19:41:44.973Z,1.30
2022-07-29T19:46:37.250Z,0.90
2022-07-29T19:51:28.964Z,1.15
2022-07-29T19:56:20.756Z,1.27
2022-07-29T20:01:12.762Z,1.00
2022-07-29T20:06:04.477Z,1.58
2022-07-29T20:10:56.137Z,0.90
2022-07-29T20:15:48.182Z,0.98
2022-07-29T20:20:39.885Z,1.20
2022-07-29T20:25:31.570Z,1.30
2022-07-29T20:30:23.517Z,0.95
2022-07-29T20:35:15.637Z,1.27
2022-07-29T20:40:08.704Z,1.33
2022-07-29T20:45:08.577Z,1.35
2022-07-29T20:50:00.759Z,1.40
2022-07-29T20:54:52.616Z,1.40
2022-07-29T20:59:45.889Z,1.52
2022-07-29T21:04:37.678Z,1.42
2022-07-29T21:09:29.508Z,1.25
2022-07-29T21:14:41.425Z,0.98
2022-07-29T21:19:33.969Z,1.27
2022-07-29T21:24:25.655Z,0.90
2022-07-29T21:29:18.514Z,0.98
2022-07-29T21:34:11.053Z,0.88
2022-07-29T21:39:07.030Z,0.65
2022-07-29T21:43:59.551Z,0.60
2022-07-29T21:48:53.042Z,0.75
2022-07-29T21:53:44.750Z,0.60
2022-07-29T21:58:37.519Z,0.82
2022-07-29T22:03:29.184Z,0.80
2022-07-29T22:08:20.974Z,0.60
2022-07-29T22:13:12.800Z,0.70
2022-07-29T22:18:04.555Z,0.70
2022-07-29T22:22:56.262Z,0.70
2022-07-29T22:27:48.062Z,0.63
2022-07-29T22:32:40.279Z,0.88
2022-07-29T22:37:31.917Z,0.70
2022-07-29T22:42:23.807Z,0.50
2022-07-29T22:47:15.505Z,0.60
2022-07-29T22:52:07.228Z,0.60
2022-07-29T22:56:59.059Z,0.60
2022-07-29T23:01:50.974Z,0.60
2022-07-29T23:06:42.713Z,0.65
2022-07-29T23:11:34.379Z,0.60
2022-07-29T23:16:27.053Z,1.42
2022-07-29T23:21:20.855Z,1.00
2022-07-29T23:26:16.696Z,1.10
2022-07-29T23:31:08.441Z,1.63
2022-07-29T23:36:00.149Z,2.97
2022-07-29T23:40:51.922Z,2.15
2022-07-29T23:45:48.462Z,2.40
2022-07-29T23:50:40.479Z,2.43
2022-07-29T23:55:37.378Z,3.10
